Oldwick, New Jersey
Current Conditions -  °F | °C
As of 9:22 AM on Thursday 30 Oct 2014 (Local Time) from KSMQ Reporting Station
Haze Haze  
Wind Chill: 44°   Ceiling: Unl
Heat Index: 44°   Visibility: 6mi
Dew Point: 43°   Wind: 0mph
Humidity: 96%   Direction: NA
Pressure: 30.01"   Gusts: NA
Location:  40.67°N, 74.75°W
Report Text: KSMQ 301322Z AUTO 00000KT 6SM BR SCT003 07/06 A3001 RMK AO2 T00670061
Loading
Personal Weather Stations






























Interactive Weather Map
Tropical Storm Tracking
New forecast layout! Learn more

10-Day Weather Forecast

Advertisements
Track Severe Weather on mobile